sensor_id;sensor_type;location;lat;lon;timestamp;temperature;humidity
49465;DHT22;35358;49.342;8.802;2022-12-29T00:01:42;6.40;99.90
49465;DHT22;35358;49.342;8.802;2022-12-29T00:04:09;6.40;99.90
49465;DHT22;35358;49.342;8.802;2022-12-29T00:06:38;6.40;99.90
49465;DHT22;35358;49.342;8.802;2022-12-29T00:09:04;6.70;99.90
49465;DHT22;35358;49.342;8.802;2022-12-29T00:11:31;6.70;99.90
49465;DHT22;35358;49.342;8.802;2022-12-29T00:13:59;6.70;99.90
49465;DHT22;35358;49.342;8.802;2022-12-29T00:16:45;6.90;99.90
49465;DHT22;35358;49.342;8.802;2022-12-29T00:19:13;7.20;99.90
49465;DHT22;35358;49.342;8.802;2022-12-29T00:21:58;7.20;99.90
49465;DHT22;35358;49.342;8.802;2022-12-29T00:24:43;7.30;99.90
49465;DHT22;35358;49.342;8.802;2022-12-29T00:27:30;7.50;99.90
49465;DHT22;35358;49.342;8.802;2022-12-29T00:30:25;7.80;99.90
49465;DHT22;35358;49.342;8.802;2022-12-29T00:33:18;7.90;99.90
49465;DHT22;35358;49.342;8.802;2022-12-29T00:36:17;8.60;99.90
49465;DHT22;35358;49.342;8.802;2022-12-29T00:38:51;8.60;99.90
49465;DHT22;35358;49.342;8.802;2022-12-29T00:41:36;9.10;99.90
49465;DHT22;35358;49.342;8.802;2022-12-29T00:44:20;9.20;99.90
49465;DHT22;35358;49.342;8.802;2022-12-29T00:46:46;9.60;99.90
49465;DHT22;35358;49.342;8.802;2022-12-29T00:49:14;9.80;99.90
49465;DHT22;35358;49.342;8.802;2022-12-29T00:52:12;9.70;99.90
49465;DHT22;35358;49.342;8.802;2022-12-29T00:54:41;9.80;99.90
49465;DHT22;35358;49.342;8.802;2022-12-29T00:57:10;9.80;99.90
49465;DHT22;35358;49.342;8.802;2022-12-29T00:59:37;9.80;99.90
49465;DHT22;35358;49.342;8.802;2022-12-29T01:02:05;9.90;99.90
49465;DHT22;35358;49.342;8.802;2022-12-29T01:04:31;10.10;99.90
49465;DHT22;35358;49.342;8.802;2022-12-29T01:06:57;10.20;99.90
49465;DHT22;35358;49.342;8.802;2022-12-29T01:09:23;10.20;99.90
49465;DHT22;35358;49.342;8.802;2022-12-29T01:12:10;10.40;99.90
49465;DHT22;35358;49.342;8.802;2022-12-29T01:14:38;10.50;99.90
49465;DHT22;35358;49.342;8.802;2022-12-29T01:17:05;10.50;99.90
49465;DHT22;35358;49.342;8.802;2022-12-29T01:19:33;10.70;99.90
49465;DHT22;35358;49.342;8.802;2022-12-29T01:21:58;10.70;99.90
49465;DHT22;35358;49.342;8.802;2022-12-29T01:24:24;10.80;99.90
49465;DHT22;35358;49.342;8.802;2022-12-29T01:26:53;10.90;99.90
49465;DHT22;35358;49.342;8.802;2022-12-29T01:29:19;10.70;99.90
49465;DHT22;35358;49.342;8.802;2022-12-29T01:31:47;10.70;99.90
49465;DHT22;35358;49.342;8.802;2022-12-29T01:34:14;10.70;99.90
49465;DHT22;35358;49.342;8.802;2022-12-29T01:36:42;10.90;99.90
49465;DHT22;35358;49.342;8.802;2022-12-29T01:39:08;10.90;99.90
49465;DHT22;35358;49.342;8.802;2022-12-29T01:41:38;11.00;99.90
49465;DHT22;35358;49.342;8.802;2022-12-29T01:47:09;11.00;99.90
49465;DHT22;35358;49.342;8.802;2022-12-29T01:49:40;10.90;99.90
49465;DHT22;35358;49.342;8.802;2022-12-29T01:52:07;10.80;99.90
49465;DHT22;35358;49.342;8.802;2022-12-29T01:54:42;10.80;99.90
49465;DHT22;35358;49.342;8.802;2022-12-29T01:57:12;10.90;99.90
49465;DHT22;35358;49.342;8.802;2022-12-29T01:59:47;10.90;99.90
49465;DHT22;35358;49.342;8.802;2022-12-29T02:02:14;10.80;99.90
49465;DHT22;35358;49.342;8.802;2022-12-29T02:04:41;10.80;99.90
49465;DHT22;35358;49.342;8.802;2022-12-29T02:07:21;10.90;99.90
49465;DHT22;35358;49.342;8.802;2022-12-29T02:09:51;10.90;99.90
49465;DHT22;35358;49.342;8.802;2022-12-29T02:12:21;10.80;99.90
49465;DHT22;35358;49.342;8.802;2022-12-29T02:14:50;10.70;99.90
49465;DHT22;35358;49.342;8.802;2022-12-29T02:17:24;10.70;99.90
49465;DHT22;35358;49.342;8.802;2022-12-29T02:30:59;10.40;99.90
49465;DHT22;35358;49.342;8.802;2022-12-29T02:36:16;10.20;99.90
49465;DHT22;35358;49.342;8.802;2022-12-29T02:44:35;10.10;99.90
49465;DHT22;35358;49.342;8.802;2022-12-29T02:52:35;10.30;99.90
49465;DHT22;35358;49.342;8.802;2022-12-29T02:55:04;10.30;99.90
49465;DHT22;35358;49.342;8.802;2022-12-29T02:57:35;10.50;99.90
49465;DHT22;35358;49.342;8.802;2022-12-29T03:00:10;10.40;99.90
49465;DHT22;35358;49.342;8.802;2022-12-29T03:08:28;10.10;99.90
49465;DHT22;35358;49.342;8.802;2022-12-29T03:11:03;10.00;99.90
49465;DHT22;35358;49.342;8.802;2022-12-29T03:13:49;9.90;99.90
49465;DHT22;35358;49.342;8.802;2022-12-29T03:16:44;10.00;99.90
49465;DHT22;35358;49.342;8.802;2022-12-29T03:21:44;10.00;99.90
49465;DHT22;35358;49.342;8.802;2022-12-29T03:24:32;9.90;99.90
49465;DHT22;35358;49.342;8.802;2022-12-29T03:27:05;9.90;99.90
49465;DHT22;35358;49.342;8.802;2022-12-29T03:29:39;9.90;99.90
49465;DHT22;35358;49.342;8.802;2022-12-29T03:32:08;9.90;99.90
49465;DHT22;35358;49.342;8.802;2022-12-29T03:34:37;9.80;99.90
49465;DHT22;35358;49.342;8.802;2022-12-29T03:37:11;9.90;99.90
49465;DHT22;35358;49.342;8.802;2022-12-29T03:39:39;9.90;99.90
49465;DHT22;35358;49.342;8.802;2022-12-29T03:42:11;10.00;99.90
49465;DHT22;35358;49.342;8.802;2022-12-29T03:44:40;10.00;99.90
49465;DHT22;35358;49.342;8.802;2022-12-29T03:47:07;10.10;99.90
49465;DHT22;35358;49.342;8.802;2022-12-29T03:49:35;10.10;99.90
49465;DHT22;35358;49.342;8.802;2022-12-29T03:52:01;10.20;99.90
49465;DHT22;35358;49.342;8.802;2022-12-29T03:54:29;10.20;99.90
49465;DHT22;35358;49.342;8.802;2022-12-29T03:56:55;10.30;99.90
49465;DHT22;35358;49.342;8.802;2022-12-29T03:59:21;10.40;99.90
49465;DHT22;35358;49.342;8.802;2022-12-29T04:01:47;10.40;99.90
49465;DHT22;35358;49.342;8.802;2022-12-29T04:04:12;10.30;99.90
49465;DHT22;35358;49.342;8.802;2022-12-29T04:06:38;10.30;99.90
49465;DHT22;35358;49.342;8.802;2022-12-29T04:09:04;10.30;99.90
49465;DHT22;35358;49.342;8.802;2022-12-29T04:11:31;10.30;99.90
49465;DHT22;35358;49.342;8.802;2022-12-29T04:13:59;10.40;99.90
49465;DHT22;35358;49.342;8.802;2022-12-29T04:16:27;10.40;99.90
49465;DHT22;35358;49.342;8.802;2022-12-29T04:18:53;10.60;99.90
49465;DHT22;35358;49.342;8.802;2022-12-29T04:21:21;10.60;99.90
49465;DHT22;35358;49.342;8.802;2022-12-29T04:23:49;10.60;99.90
49465;DHT22;35358;49.342;8.802;2022-12-29T04:26:15;10.60;99.90
49465;DHT22;35358;49.342;8.802;2022-12-29T04:28:43;10.80;99.90
49465;DHT22;35358;49.342;8.802;2022-12-29T04:31:08;10.70;99.90
49465;DHT22;35358;49.342;8.802;2022-12-29T04:33:36;10.70;99.90
49465;DHT22;35358;49.342;8.802;2022-12-29T04:36:05;10.70;99.90
49465;DHT22;35358;49.342;8.802;2022-12-29T04:38:33;10.80;99.90
49465;DHT22;35358;49.342;8.802;2022-12-29T04:41:00;10.90;99.90
49465;DHT22;35358;49.342;8.802;2022-12-29T04:43:26;10.90;99.90
49465;DHT22;35358;49.342;8.802;2022-12-29T04:45:51;10.80;99.90
49465;DHT22;35358;49.342;8.802;2022-12-29T04:48:17;10.80;99.90
49465;DHT22;35358;49.342;8.802;2022-12-29T04:50:43;10.90;99.90
49465;DHT22;35358;49.342;8.802;2022-12-29T04:53:09;10.90;99.90
49465;DHT22;35358;49.342;8.802;2022-12-29T04:55:35;10.90;99.90
49465;DHT22;35358;49.342;8.802;2022-12-29T04:58:00;10.90;99.90
49465;DHT22;35358;49.342;8.802;2022-12-29T05:00:29;10.90;99.90
49465;DHT22;35358;49.342;8.802;2022-12-29T05:02:55;11.00;99.90
49465;DHT22;35358;49.342;8.802;2022-12-29T05:05:20;11.00;99.90
49465;DHT22;35358;49.342;8.802;2022-12-29T05:07:48;11.00;99.90
49465;DHT22;35358;49.342;8.802;2022-12-29T05:10:16;11.00;99.90
49465;DHT22;35358;49.342;8.802;2022-12-29T05:12:42;11.10;99.90
49465;DHT22;35358;49.342;8.802;2022-12-29T05:15:09;10.90;99.90
49465;DHT22;35358;49.342;8.802;2022-12-29T05:17:36;10.90;99.90
49465;DHT22;35358;49.342;8.802;2022-12-29T05:20:05;11.00;99.90
49465;DHT22;35358;49.342;8.802;2022-12-29T05:22:30;11.00;99.90
49465;DHT22;35358;49.342;8.802;2022-12-29T05:24:56;11.20;99.90
49465;DHT22;35358;49.342;8.802;2022-12-29T05:27:29;11.30;99.90
49465;DHT22;35358;49.342;8.802;2022-12-29T05:29:57;11.40;99.90
49465;DHT22;35358;49.342;8.802;2022-12-29T05:32:22;11.30;99.90
49465;DHT22;35358;49.342;8.802;2022-12-29T05:34:48;11.30;99.90
49465;DHT22;35358;49.342;8.802;2022-12-29T05:37:14;11.20;99.90
49465;DHT22;35358;49.342;8.802;2022-12-29T05:39:39;11.30;99.90
49465;DHT22;35358;49.342;8.802;2022-12-29T05:42:07;11.20;99.90
49465;DHT22;35358;49.342;8.802;2022-12-29T05:44:37;11.20;99.90
49465;DHT22;35358;49.342;8.802;2022-12-29T05:47:07;11.20;99.90
49465;DHT22;35358;49.342;8.802;2022-12-29T05:49:33;11.30;99.90
49465;DHT22;35358;49.342;8.802;2022-12-29T05:52:01;11.20;99.90
49465;DHT22;35358;49.342;8.802;2022-12-29T05:54:26;11.20;99.90
49465;DHT22;35358;49.342;8.802;2022-12-29T05:56:52;11.20;99.90
49465;DHT22;35358;49.342;8.802;2022-12-29T05:59:19;11.20;99.90
49465;DHT22;35358;49.342;8.802;2022-12-29T06:01:45;11.30;99.90
49465;DHT22;35358;49.342;8.802;2022-12-29T06:04:10;11.40;99.90
49465;DHT22;35358;49.342;8.802;2022-12-29T06:06:36;11.30;99.90
49465;DHT22;35358;49.342;8.802;2022-12-29T06:09:02;11.40;99.90
49465;DHT22;35358;49.342;8.802;2022-12-29T06:11:28;11.40;99.90
49465;DHT22;35358;49.342;8.802;2022-12-29T06:13:53;11.40;99.90
49465;DHT22;35358;49.342;8.802;2022-12-29T06:16:19;11.50;99.90
49465;DHT22;35358;49.342;8.802;2022-12-29T06:18:47;11.40;99.90
49465;DHT22;35358;49.342;8.802;2022-12-29T06:21:15;11.40;99.90
49465;DHT22;35358;49.342;8.802;2022-12-29T06:23:40;11.30;99.90
49465;DHT22;35358;49.342;8.802;2022-12-29T06:26:06;11.30;99.90
49465;DHT22;35358;49.342;8.802;2022-12-29T06:28:37;11.40;99.90
49465;DHT22;35358;49.342;8.802;2022-12-29T06:31:03;11.40;99.90
49465;DHT22;35358;49.342;8.802;2022-12-29T06:33:31;11.40;99.90
49465;DHT22;35358;49.342;8.802;2022-12-29T06:35:57;11.40;99.90
49465;DHT22;35358;49.342;8.802;2022-12-29T06:38:24;11.40;99.90
49465;DHT22;35358;49.342;8.802;2022-12-29T06:40:50;11.30;99.90
49465;DHT22;35358;49.342;8.802;2022-12-29T06:43:16;11.30;99.90
49465;DHT22;35358;49.342;8.802;2022-12-29T06:45:43;11.30;99.90
49465;DHT22;35358;49.342;8.802;2022-12-29T06:48:09;11.30;99.90
49465;DHT22;35358;49.342;8.802;2022-12-29T06:50:35;11.50;99.90
49465;DHT22;35358;49.342;8.802;2022-12-29T06:53:00;11.60;99.90
49465;DHT22;35358;49.342;8.802;2022-12-29T06:55:26;11.60;99.90
49465;DHT22;35358;49.342;8.802;2022-12-29T06:57:54;11.60;99.90
49465;DHT22;35358;49.342;8.802;2022-12-29T07:00:25;11.60;99.90
49465;DHT22;35358;49.342;8.802;2022-12-29T07:02:54;11.70;99.90
49465;DHT22;35358;49.342;8.802;2022-12-29T07:05:20;11.60;99.90
49465;DHT22;35358;49.342;8.802;2022-12-29T07:07:48;11.70;99.90
49465;DHT22;35358;49.342;8.802;2022-12-29T07:10:16;11.70;99.90
49465;DHT22;35358;49.342;8.802;2022-12-29T07:12:42;11.50;99.90
49465;DHT22;35358;49.342;8.802;2022-12-29T07:15:08;11.70;99.90
49465;DHT22;35358;49.342;8.802;2022-12-29T07:17:39;11.60;99.90
49465;DHT22;35358;49.342;8.802;2022-12-29T07:20:08;11.70;99.90
49465;DHT22;35358;49.342;8.802;2022-12-29T07:22:33;11.60;99.90
49465;DHT22;35358;49.342;8.802;2022-12-29T07:24:59;11.70;99.90
49465;DHT22;35358;49.342;8.802;2022-12-29T07:27:30;11.60;99.90
49465;DHT22;35358;49.342;8.802;2022-12-29T07:29:55;11.70;99.90
49465;DHT22;35358;49.342;8.802;2022-12-29T07:32:21;11.70;99.90
49465;DHT22;35358;49.342;8.802;2022-12-29T07:34:46;11.80;99.90
49465;DHT22;35358;49.342;8.802;2022-12-29T07:37:15;11.90;99.90
49465;DHT22;35358;49.342;8.802;2022-12-29T07:39:44;11.90;99.90
49465;DHT22;35358;49.342;8.802;2022-12-29T07:42:10;11.90;99.90
49465;DHT22;35358;49.342;8.802;2022-12-29T07:44:36;12.00;99.90
49465;DHT22;35358;49.342;8.802;2022-12-29T07:47:02;11.90;99.90
49465;DHT22;35358;49.342;8.802;2022-12-29T07:49:30;11.90;99.90
49465;DHT22;35358;49.342;8.802;2022-12-29T07:51:56;11.90;99.90
49465;DHT22;35358;49.342;8.802;2022-12-29T07:54:24;12.00;99.90
49465;DHT22;35358;49.342;8.802;2022-12-29T07:56:50;12.00;99.90
49465;DHT22;35358;49.342;8.802;2022-12-29T07:59:21;12.00;99.90
49465;DHT22;35358;49.342;8.802;2022-12-29T08:01:51;12.00;99.90
49465;DHT22;35358;49.342;8.802;2022-12-29T08:04:17;12.00;99.90
49465;DHT22;35358;49.342;8.802;2022-12-29T08:06:42;12.00;99.90
49465;DHT22;35358;49.342;8.802;2022-12-29T08:09:10;11.90;99.90
49465;DHT22;35358;49.342;8.802;2022-12-29T08:11:36;11.90;99.90
49465;DHT22;35358;49.342;8.802;2022-12-29T08:14:05;12.10;99.90
49465;DHT22;35358;49.342;8.802;2022-12-29T08:16:34;12.00;99.90
49465;DHT22;35358;49.342;8.802;2022-12-29T08:18:59;11.90;99.90
49465;DHT22;35358;49.342;8.802;2022-12-29T08:21:27;12.00;99.90
49465;DHT22;35358;49.342;8.802;2022-12-29T08:23:52;12.00;99.90
49465;DHT22;35358;49.342;8.802;2022-12-29T08:26:18;11.90;99.90
49465;DHT22;35358;49.342;8.802;2022-12-29T08:28:44;12.00;99.90
49465;DHT22;35358;49.342;8.802;2022-12-29T08:31:11;12.00;99.90
49465;DHT22;35358;49.342;8.802;2022-12-29T08:33:37;11.90;99.90
49465;DHT22;35358;49.342;8.802;2022-12-29T08:36:04;11.90;99.90
49465;DHT22;35358;49.342;8.802;2022-12-29T08:38:31;12.00;99.90
49465;DHT22;35358;49.342;8.802;2022-12-29T08:40:59;12.00;99.90
49465;DHT22;35358;49.342;8.802;2022-12-29T08:43:27;12.10;99.90
49465;DHT22;35358;49.342;8.802;2022-12-29T08:45:57;12.20;99.90
49465;DHT22;35358;49.342;8.802;2022-12-29T08:48:27;12.10;99.90
49465;DHT22;35358;49.342;8.802;2022-12-29T08:50:58;12.10;99.90
49465;DHT22;35358;49.342;8.802;2022-12-29T08:53:23;12.10;99.90
49465;DHT22;35358;49.342;8.802;2022-12-29T08:55:56;12.20;99.90
49465;DHT22;35358;49.342;8.802;2022-12-29T08:58:22;12.10;99.90
49465;DHT22;35358;49.342;8.802;2022-12-29T09:00:48;12.10;99.90
49465;DHT22;35358;49.342;8.802;2022-12-29T09:03:18;12.10;99.90
49465;DHT22;35358;49.342;8.802;2022-12-29T09:05:48;11.90;99.90
49465;DHT22;35358;49.342;8.802;2022-12-29T09:08:13;12.00;99.90
49465;DHT22;35358;49.342;8.802;2022-12-29T09:10:39;12.10;99.90
49465;DHT22;35358;49.342;8.802;2022-12-29T09:13:04;12.20;99.90
49465;DHT22;35358;49.342;8.802;2022-12-29T09:15:32;12.20;99.90
49465;DHT22;35358;49.342;8.802;2022-12-29T09:18:00;12.20;99.90
49465;DHT22;35358;49.342;8.802;2022-12-29T09:20:26;12.20;99.90
49465;DHT22;35358;49.342;8.802;2022-12-29T09:22:51;12.20;99.90
49465;DHT22;35358;49.342;8.802;2022-12-29T09:25:17;12.20;99.90
49465;DHT22;35358;49.342;8.802;2022-12-29T09:27:51;12.10;99.90
49465;DHT22;35358;49.342;8.802;2022-12-29T09:30:19;12.20;99.90
49465;DHT22;35358;49.342;8.802;2022-12-29T09:32:45;12.20;99.90
49465;DHT22;35358;49.342;8.802;2022-12-29T09:35:11;12.30;99.90
49465;DHT22;35358;49.342;8.802;2022-12-29T09:37:42;12.20;99.90
49465;DHT22;35358;49.342;8.802;2022-12-29T09:40:28;12.20;99.90
49465;DHT22;35358;49.342;8.802;2022-12-29T09:45:44;12.20;99.90
49465;DHT22;35358;49.342;8.802;2022-12-29T09:48:20;12.30;99.90
49465;DHT22;35358;49.342;8.802;2022-12-29T09:51:10;12.20;99.90
49465;DHT22;35358;49.342;8.802;2022-12-29T09:53:57;12.30;99.90
49465;DHT22;35358;49.342;8.802;2022-12-29T09:56:26;12.40;99.90
49465;DHT22;35358;49.342;8.802;2022-12-29T09:59:14;12.30;99.90
49465;DHT22;35358;49.342;8.802;2022-12-29T10:04:09;12.20;99.90
49465;DHT22;35358;49.342;8.802;2022-12-29T10:06:53;12.10;99.90
49465;DHT22;35358;49.342;8.802;2022-12-29T10:09:22;12.10;99.90
49465;DHT22;35358;49.342;8.802;2022-12-29T10:22:51;12.30;99.90
49465;DHT22;35358;49.342;8.802;2022-12-29T10:25:25;12.30;99.90
49465;DHT22;35358;49.342;8.802;2022-12-29T10:27:53;12.20;99.90
49465;DHT22;35358;49.342;8.802;2022-12-29T10:30:20;12.30;99.90
49465;DHT22;35358;49.342;8.802;2022-12-29T10:32:53;12.20;99.90
49465;DHT22;35358;49.342;8.802;2022-12-29T10:35:25;12.20;99.90
49465;DHT22;35358;49.342;8.802;2022-12-29T10:43:50;12.20;99.90
49465;DHT22;35358;49.342;8.802;2022-12-29T10:46:25;12.10;99.90
49465;DHT22;35358;49.342;8.802;2022-12-29T10:48:55;12.20;99.90
49465;DHT22;35358;49.342;8.802;2022-12-29T10:51:26;12.20;99.90
49465;DHT22;35358;49.342;8.802;2022-12-29T10:54:11;12.20;99.90
49465;DHT22;35358;49.342;8.802;2022-12-29T10:56:42;12.20;99.90
49465;DHT22;35358;49.342;8.802;2022-12-29T10:59:19;12.10;99.90
49465;DHT22;35358;49.342;8.802;2022-12-29T11:07:19;12.20;99.90
49465;DHT22;35358;49.342;8.802;2022-12-29T11:09:45;12.20;99.90
49465;DHT22;35358;49.342;8.802;2022-12-29T11:12:29;12.30;99.90
49465;DHT22;35358;49.342;8.802;2022-12-29T11:22:55;12.40;99.90
49465;DHT22;35358;49.342;8.802;2022-12-29T11:25:23;12.40;99.90
49465;DHT22;35358;49.342;8.802;2022-12-29T11:27:56;12.40;99.90
49465;DHT22;35358;49.342;8.802;2022-12-29T11:30:24;12.50;99.90
49465;DHT22;35358;49.342;8.802;2022-12-29T11:32:53;12.50;99.90
49465;DHT22;35358;49.342;8.802;2022-12-29T11:35:39;12.50;99.90
49465;DHT22;35358;49.342;8.802;2022-12-29T11:38:13;12.50;99.90
49465;DHT22;35358;49.342;8.802;2022-12-29T11:40:43;12.50;99.90
49465;DHT22;35358;49.342;8.802;2022-12-29T11:43:21;12.50;99.90
49465;DHT22;35358;49.342;8.802;2022-12-29T11:45:48;12.50;99.90
49465;DHT22;35358;49.342;8.802;2022-12-29T11:48:18;12.60;99.90
49465;DHT22;35358;49.342;8.802;2022-12-29T11:51:06;12.50;99.90
49465;DHT22;35358;49.342;8.802;2022-12-29T11:56:08;12.60;99.90
49465;DHT22;35358;49.342;8.802;2022-12-29T11:58:37;12.60;99.90
49465;DHT22;35358;49.342;8.802;2022-12-29T12:01:09;12.60;99.90
49465;DHT22;35358;49.342;8.802;2022-12-29T12:03:38;12.60;99.90
49465;DHT22;35358;49.342;8.802;2022-12-29T12:06:10;12.60;99.90
49465;DHT22;35358;49.342;8.802;2022-12-29T12:08:59;12.60;99.90
49465;DHT22;35358;49.342;8.802;2022-12-29T12:11:28;12.60;99.90
49465;DHT22;35358;49.342;8.802;2022-12-29T12:14:18;12.70;99.90
49465;DHT22;35358;49.342;8.802;2022-12-29T12:16:59;12.80;99.90
49465;DHT22;35358;49.342;8.802;2022-12-29T12:22:51;12.80;99.90
49465;DHT22;35358;49.342;8.802;2022-12-29T12:25:21;12.80;99.90
49465;DHT22;35358;49.342;8.802;2022-12-29T12:27:56;12.70;99.90
49465;DHT22;35358;49.342;8.802;2022-12-29T12:30:28;12.60;99.90
49465;DHT22;35358;49.342;8.802;2022-12-29T12:33:18;12.50;99.90
49465;DHT22;35358;49.342;8.802;2022-12-29T12:47:36;12.40;99.90
49465;DHT22;35358;49.342;8.802;2022-12-29T12:58:30;12.50;99.90
49465;DHT22;35358;49.342;8.802;2022-12-29T13:07:02;12.50;99.90
49465;DHT22;35358;49.342;8.802;2022-12-29T13:14:52;12.50;99.90
49465;DHT22;35358;49.342;8.802;2022-12-29T13:17:30;12.40;99.90
49465;DHT22;35358;49.342;8.802;2022-12-29T13:20:18;12.30;99.90
49465;DHT22;35358;49.342;8.802;2022-12-29T13:30:52;11.20;99.90
49465;DHT22;35358;49.342;8.802;2022-12-29T13:36:59;11.20;99.90
49465;DHT22;35358;49.342;8.802;2022-12-29T13:39:41;11.10;99.90
49465;DHT22;35358;49.342;8.802;2022-12-29T13:42:08;11.00;99.90
49465;DHT22;35358;49.342;8.802;2022-12-29T13:44:58;11.00;99.90
49465;DHT22;35358;49.342;8.802;2022-12-29T13:47:36;11.00;99.90
49465;DHT22;35358;49.342;8.802;2022-12-29T13:50:11;11.00;99.90
49465;DHT22;35358;49.342;8.802;2022-12-29T14:03:57;10.80;99.90
49465;DHT22;35358;49.342;8.802;2022-12-29T14:06:32;10.80;99.90
49465;DHT22;35358;49.342;8.802;2022-12-29T14:09:02;10.80;99.90
49465;DHT22;35358;49.342;8.802;2022-12-29T14:13:56;10.80;99.90
49465;DHT22;35358;49.342;8.802;2022-12-29T14:16:32;10.80;99.90
49465;DHT22;35358;49.342;8.802;2022-12-29T14:21:55;10.80;99.90
49465;DHT22;35358;49.342;8.802;2022-12-29T14:34:51;10.70;99.90
49465;DHT22;35358;49.342;8.802;2022-12-29T14:37:31;10.70;99.90
49465;DHT22;35358;49.342;8.802;2022-12-29T14:40:25;10.80;99.90
49465;DHT22;35358;49.342;8.802;2022-12-29T14:42:55;10.70;99.90
49465;DHT22;35358;49.342;8.802;2022-12-29T14:45:31;10.70;99.90
49465;DHT22;35358;49.342;8.802;2022-12-29T14:50:49;10.60;99.90
49465;DHT22;35358;49.342;8.802;2022-12-29T14:53:44;10.60;99.90
49465;DHT22;35358;49.342;8.802;2022-12-29T14:56:15;10.40;99.90
49465;DHT22;35358;49.342;8.802;2022-12-29T14:58:50;10.40;99.90
49465;DHT22;35358;49.342;8.802;2022-12-29T15:01:47;10.40;99.90
49465;DHT22;35358;49.342;8.802;2022-12-29T15:04:25;10.40;99.90
49465;DHT22;35358;49.342;8.802;2022-12-29T15:06:53;10.30;99.90
49465;DHT22;35358;49.342;8.802;2022-12-29T15:09:39;10.20;99.90
49465;DHT22;35358;49.342;8.802;2022-12-29T15:14:48;10.00;99.90
49465;DHT22;35358;49.342;8.802;2022-12-29T15:17:31;10.00;99.90
49465;DHT22;35358;49.342;8.802;2022-12-29T15:20:00;10.00;99.90
49465;DHT22;35358;49.342;8.802;2022-12-29T15:22:27;10.00;99.90
49465;DHT22;35358;49.342;8.802;2022-12-29T15:24:54;10.10;99.90
49465;DHT22;35358;49.342;8.802;2022-12-29T15:27:23;10.10;99.90
49465;DHT22;35358;49.342;8.802;2022-12-29T15:30:00;10.00;99.90
49465;DHT22;35358;49.342;8.802;2022-12-29T15:32:38;9.90;99.90
49465;DHT22;35358;49.342;8.802;2022-12-29T15:35:41;10.00;99.90
49465;DHT22;35358;49.342;8.802;2022-12-29T15:38:14;10.00;99.90
49465;DHT22;35358;49.342;8.802;2022-12-29T15:40:43;10.00;99.90
49465;DHT22;35358;49.342;8.802;2022-12-29T15:46:04;9.90;99.90
49465;DHT22;35358;49.342;8.802;2022-12-29T15:48:30;9.90;99.90
49465;DHT22;35358;49.342;8.802;2022-12-29T15:50:57;9.90;99.90
49465;DHT22;35358;49.342;8.802;2022-12-29T15:53:32;9.90;99.90
49465;DHT22;35358;49.342;8.802;2022-12-29T15:56:09;9.90;99.90
49465;DHT22;35358;49.342;8.802;2022-12-29T15:58:56;9.80;99.90
49465;DHT22;35358;49.342;8.802;2022-12-29T16:01:34;9.80;99.90
49465;DHT22;35358;49.342;8.802;2022-12-29T16:04:05;9.80;99.90
49465;DHT22;35358;49.342;8.802;2022-12-29T16:06:36;9.70;99.90
49465;DHT22;35358;49.342;8.802;2022-12-29T16:09:15;9.60;99.90
49465;DHT22;35358;49.342;8.802;2022-12-29T16:11:57;9.60;99.90
49465;DHT22;35358;49.342;8.802;2022-12-29T16:17:03;9.60;99.90
49465;DHT22;35358;49.342;8.802;2022-12-29T16:19:39;9.60;99.90
49465;DHT22;35358;49.342;8.802;2022-12-29T16:22:17;9.60;99.90
49465;DHT22;35358;49.342;8.802;2022-12-29T16:24:48;9.40;99.90
49465;DHT22;35358;49.342;8.802;2022-12-29T16:27:22;9.40;99.90
49465;DHT22;35358;49.342;8.802;2022-12-29T16:29:52;9.30;99.90
49465;DHT22;35358;49.342;8.802;2022-12-29T16:32:30;9.30;99.90
49465;DHT22;35358;49.342;8.802;2022-12-29T16:35:22;9.30;99.90
49465;DHT22;35358;49.342;8.802;2022-12-29T16:40:49;9.30;99.90
49465;DHT22;35358;49.342;8.802;2022-12-29T16:43:28;9.30;99.90
49465;DHT22;35358;49.342;8.802;2022-12-29T16:48:31;9.30;99.90
49465;DHT22;35358;49.342;8.802;2022-12-29T16:53:50;9.30;99.90
49465;DHT22;35358;49.342;8.802;2022-12-29T16:56:24;9.40;99.90
49465;DHT22;35358;49.342;8.802;2022-12-29T16:59:34;9.40;99.90
49465;DHT22;35358;49.342;8.802;2022-12-29T17:01:41;9.40;99.90
49465;DHT22;35358;49.342;8.802;2022-12-29T17:04:08;9.30;99.90
49465;DHT22;35358;49.342;8.802;2022-12-29T17:06:35;9.40;99.90
49465;DHT22;35358;49.342;8.802;2022-12-29T17:09:01;9.40;99.90
49465;DHT22;35358;49.342;8.802;2022-12-29T17:11:33;9.40;99.90
49465;DHT22;35358;49.342;8.802;2022-12-29T17:16:43;9.50;99.90
49465;DHT22;35358;49.342;8.802;2022-12-29T17:19:16;9.40;99.90
49465;DHT22;35358;49.342;8.802;2022-12-29T17:21:42;9.50;99.90
49465;DHT22;35358;49.342;8.802;2022-12-29T17:24:18;9.50;99.90
49465;DHT22;35358;49.342;8.802;2022-12-29T17:26:53;9.40;99.90
49465;DHT22;35358;49.342;8.802;2022-12-29T17:31:56;9.50;99.90
49465;DHT22;35358;49.342;8.802;2022-12-29T17:34:22;9.50;99.90
49465;DHT22;35358;49.342;8.802;2022-12-29T17:36:51;9.60;99.90
49465;DHT22;35358;49.342;8.802;2022-12-29T17:39:16;9.60;99.90
49465;DHT22;35358;49.342;8.802;2022-12-29T17:41:45;9.50;99.90
49465;DHT22;35358;49.342;8.802;2022-12-29T17:44:18;9.50;99.90
49465;DHT22;35358;49.342;8.802;2022-12-29T17:46:48;9.40;99.90
49465;DHT22;35358;49.342;8.802;2022-12-29T17:49:17;9.40;99.90
49465;DHT22;35358;49.342;8.802;2022-12-29T17:51:44;9.40;99.90
49465;DHT22;35358;49.342;8.802;2022-12-29T17:54:23;9.30;99.90
49465;DHT22;35358;49.342;8.802;2022-12-29T17:56:50;9.30;99.90
49465;DHT22;35358;49.342;8.802;2022-12-29T17:59:16;9.30;99.90
49465;DHT22;35358;49.342;8.802;2022-12-29T18:01:44;9.30;99.90
49465;DHT22;35358;49.342;8.802;2022-12-29T18:04:15;9.40;99.90
49465;DHT22;35358;49.342;8.802;2022-12-29T18:06:41;9.40;99.90
49465;DHT22;35358;49.342;8.802;2022-12-29T18:09:10;9.40;99.90
49465;DHT22;35358;49.342;8.802;2022-12-29T18:11:40;9.30;99.90
49465;DHT22;35358;49.342;8.802;2022-12-29T18:14:13;9.40;99.90
49465;DHT22;35358;49.342;8.802;2022-12-29T18:16:39;9.30;99.90
49465;DHT22;35358;49.342;8.802;2022-12-29T18:19:07;9.30;99.90
49465;DHT22;35358;49.342;8.802;2022-12-29T18:21:42;9.30;99.90
49465;DHT22;35358;49.342;8.802;2022-12-29T18:24:13;9.40;99.90
49465;DHT22;35358;49.342;8.802;2022-12-29T18:26:39;9.30;99.90
49465;DHT22;35358;49.342;8.802;2022-12-29T18:29:07;9.30;99.90
49465;DHT22;35358;49.342;8.802;2022-12-29T18:31:33;9.20;99.90
49465;DHT22;35358;49.342;8.802;2022-12-29T18:34:06;9.20;99.90
49465;DHT22;35358;49.342;8.802;2022-12-29T18:36:34;9.20;99.90
49465;DHT22;35358;49.342;8.802;2022-12-29T18:38:59;9.10;99.90
49465;DHT22;35358;49.342;8.802;2022-12-29T18:41:28;9.10;99.90
49465;DHT22;35358;49.342;8.802;2022-12-29T18:43:57;9.10;99.90
49465;DHT22;35358;49.342;8.802;2022-12-29T18:46:23;9.10;99.90
49465;DHT22;35358;49.342;8.802;2022-12-29T18:48:50;9.10;99.90
49465;DHT22;35358;49.342;8.802;2022-12-29T18:51:18;9.10;99.90